Terminal Aerodrome Forecast
Issued by NWS Cleveland, OH

Home | Current Version | Previous Version | Graphics & Text | Print | Product List | Glossary On
Versions: 1 2 3 4 5 6 7 8 9 10 11 12 13 14 15 16 17 18 19 20 21 22 23 24 25 26 27
000
FTUS41 KCLE 252328
TAFCLE
TAF
KCLE 252328Z 2600/2706 25010KT P6SM VCSH OVC050
     FM260400 27005KT P6SM OVC035
      TEMPO 2610/2614 -SHRA OVC025
     FM261500 30008KT P6SM OVC050=

USA.gov is the U.S. government's official web portal to all federal, state and local government web resources and services.